sensor_id;sensor_type;location;lat;lon;timestamp;P1;durP1;ratioP1;P2;durP2;ratioP2
10586;SDS011;5341;47.606;7.576;2023-05-07T00:01:16;4.63;;;3.00;;
10586;SDS011;5341;47.606;7.576;2023-05-07T00:03:45;3.63;;;2.90;;
10586;SDS011;5341;47.606;7.576;2023-05-07T00:06:14;5.40;;;2.80;;
10586;SDS011;5341;47.606;7.576;2023-05-07T00:08:41;4.63;;;2.75;;
10586;SDS011;5341;47.606;7.576;2023-05-07T00:11:08;5.70;;;3.03;;
10586;SDS011;5341;47.606;7.576;2023-05-07T00:13:36;5.57;;;2.97;;
10586;SDS011;5341;47.606;7.576;2023-05-07T00:16:03;3.50;;;2.70;;
10586;SDS011;5341;47.606;7.576;2023-05-07T00:18:35;6.95;;;3.20;;
10586;SDS011;5341;47.606;7.576;2023-05-07T00:21:04;4.47;;;2.78;;
10586;SDS011;5341;47.606;7.576;2023-05-07T00:23:34;4.47;;;2.92;;
10586;SDS011;5341;47.606;7.576;2023-05-07T00:26:02;4.20;;;2.85;;
10586;SDS011;5341;47.606;7.576;2023-05-07T00:28:29;4.78;;;3.20;;
10586;SDS011;5341;47.606;7.576;2023-05-07T00:30:57;6.10;;;3.20;;
10586;SDS011;5341;47.606;7.576;2023-05-07T00:33:24;4.88;;;2.95;;
10586;SDS011;5341;47.606;7.576;2023-05-07T00:35:52;5.28;;;2.90;;
10586;SDS011;5341;47.606;7.576;2023-05-07T00:38:22;5.40;;;3.20;;
10586;SDS011;5341;47.606;7.576;2023-05-07T00:40:49;6.35;;;2.97;;
10586;SDS011;5341;47.606;7.576;2023-05-07T00:43:17;8.88;;;3.10;;
10586;SDS011;5341;47.606;7.576;2023-05-07T00:45:44;6.35;;;3.00;;
10586;SDS011;5341;47.606;7.576;2023-05-07T00:48:13;5.07;;;3.30;;
10586;SDS011;5341;47.606;7.576;2023-05-07T00:50:41;5.57;;;3.00;;
10586;SDS011;5341;47.606;7.576;2023-05-07T00:53:10;7.05;;;2.90;;
10586;SDS011;5341;47.606;7.576;2023-05-07T00:55:38;6.95;;;3.00;;
10586;SDS011;5341;47.606;7.576;2023-05-07T00:58:06;3.70;;;2.90;;
10586;SDS011;5341;47.606;7.576;2023-05-07T01:00:34;2.67;;;2.47;;
10586;SDS011;5341;47.606;7.576;2023-05-07T01:03:01;6.43;;;2.97;;
10586;SDS011;5341;47.606;7.576;2023-05-07T01:05:29;5.57;;;3.10;;
10586;SDS011;5341;47.606;7.576;2023-05-07T01:07:58;4.32;;;2.97;;
10586;SDS011;5341;47.606;7.576;2023-05-07T01:10:26;4.28;;;2.97;;
10586;SDS011;5341;47.606;7.576;2023-05-07T01:12:57;4.60;;;2.80;;
10586;SDS011;5341;47.606;7.576;2023-05-07T01:15:25;6.88;;;2.67;;
10586;SDS011;5341;47.606;7.576;2023-05-07T01:17:53;6.38;;;2.70;;
10586;SDS011;5341;47.606;7.576;2023-05-07T01:20:28;4.13;;;2.80;;
10586;SDS011;5341;47.606;7.576;2023-05-07T01:22:59;5.22;;;2.70;;
10586;SDS011;5341;47.606;7.576;2023-05-07T01:25:27;3.75;;;2.53;;
10586;SDS011;5341;47.606;7.576;2023-05-07T01:27:58;3.92;;;2.75;;
10586;SDS011;5341;47.606;7.576;2023-05-07T01:30:29;4.53;;;2.78;;
10586;SDS011;5341;47.606;7.576;2023-05-07T01:33:03;5.22;;;2.90;;
10586;SDS011;5341;47.606;7.576;2023-05-07T01:35:34;4.13;;;2.70;;
10586;SDS011;5341;47.606;7.576;2023-05-07T01:38:05;3.47;;;2.65;;
10586;SDS011;5341;47.606;7.576;2023-05-07T01:40:35;3.55;;;2.55;;
10586;SDS011;5341;47.606;7.576;2023-05-07T01:43:03;3.38;;;2.50;;
10586;SDS011;5341;47.606;7.576;2023-05-07T01:45:33;5.10;;;2.92;;
10586;SDS011;5341;47.606;7.576;2023-05-07T01:48:01;5.03;;;2.67;;
10586;SDS011;5341;47.606;7.576;2023-05-07T01:50:30;3.53;;;2.53;;
10586;SDS011;5341;47.606;7.576;2023-05-07T01:52:58;3.70;;;2.60;;
10586;SDS011;5341;47.606;7.576;2023-05-07T01:55:27;3.60;;;2.75;;
10586;SDS011;5341;47.606;7.576;2023-05-07T01:57:55;3.60;;;2.45;;
10586;SDS011;5341;47.606;7.576;2023-05-07T02:00:23;3.40;;;2.33;;
10586;SDS011;5341;47.606;7.576;2023-05-07T02:02:51;7.97;;;2.83;;
10586;SDS011;5341;47.606;7.576;2023-05-07T02:05:38;4.22;;;2.50;;
10586;SDS011;5341;47.606;7.576;2023-05-07T02:08:13;6.05;;;2.42;;
10586;SDS011;5341;47.606;7.576;2023-05-07T02:10:42;4.82;;;2.50;;
10586;SDS011;5341;47.606;7.576;2023-05-07T02:13:10;4.53;;;2.80;;
10586;SDS011;5341;47.606;7.576;2023-05-07T02:15:37;3.58;;;2.60;;
10586;SDS011;5341;47.606;7.576;2023-05-07T02:18:05;6.20;;;2.83;;
10586;SDS011;5341;47.606;7.576;2023-05-07T02:20:34;4.10;;;2.70;;
10586;SDS011;5341;47.606;7.576;2023-05-07T02:23:05;4.47;;;2.80;;
10586;SDS011;5341;47.606;7.576;2023-05-07T02:25:33;4.55;;;2.72;;
10586;SDS011;5341;47.606;7.576;2023-05-07T02:28:02;7.40;;;2.60;;
10586;SDS011;5341;47.606;7.576;2023-05-07T02:30:48;3.38;;;2.53;;
10586;SDS011;5341;47.606;7.576;2023-05-07T02:33:16;3.83;;;2.60;;
10586;SDS011;5341;47.606;7.576;2023-05-07T02:35:44;2.40;;;2.20;;
10586;SDS011;5341;47.606;7.576;2023-05-07T02:38:13;4.82;;;2.40;;
10586;SDS011;5341;47.606;7.576;2023-05-07T02:40:40;3.53;;;2.60;;
10586;SDS011;5341;47.606;7.576;2023-05-07T02:43:10;3.15;;;2.40;;
10586;SDS011;5341;47.606;7.576;2023-05-07T02:45:40;2.92;;;2.38;;
10586;SDS011;5341;47.606;7.576;2023-05-07T02:48:08;2.80;;;2.40;;
10586;SDS011;5341;47.606;7.576;2023-05-07T02:50:36;3.30;;;2.33;;
10586;SDS011;5341;47.606;7.576;2023-05-07T02:53:03;3.33;;;2.28;;
10586;SDS011;5341;47.606;7.576;2023-05-07T02:55:31;2.58;;;2.30;;
10586;SDS011;5341;47.606;7.576;2023-05-07T02:57:58;2.97;;;2.05;;
10586;SDS011;5341;47.606;7.576;2023-05-07T03:00:27;3.70;;;2.40;;
10586;SDS011;5341;47.606;7.576;2023-05-07T03:03:07;3.88;;;2.40;;
10586;SDS011;5341;47.606;7.576;2023-05-07T03:05:34;4.60;;;2.22;;
10586;SDS011;5341;47.606;7.576;2023-05-07T03:08:01;3.08;;;2.20;;
10586;SDS011;5341;47.606;7.576;2023-05-07T03:10:30;3.95;;;2.20;;
10586;SDS011;5341;47.606;7.576;2023-05-07T03:12:58;2.83;;;2.40;;
10586;SDS011;5341;47.606;7.576;2023-05-07T03:15:26;4.25;;;2.33;;
10586;SDS011;5341;47.606;7.576;2023-05-07T03:17:54;5.47;;;2.33;;
10586;SDS011;5341;47.606;7.576;2023-05-07T03:20:22;3.00;;;2.25;;
10586;SDS011;5341;47.606;7.576;2023-05-07T03:22:49;3.35;;;2.40;;
10586;SDS011;5341;47.606;7.576;2023-05-07T03:25:17;3.90;;;2.47;;
10586;SDS011;5341;47.606;7.576;2023-05-07T03:27:44;3.08;;;2.33;;
10586;SDS011;5341;47.606;7.576;2023-05-07T03:30:12;2.63;;;2.40;;
10586;SDS011;5341;47.606;7.576;2023-05-07T03:32:39;3.45;;;2.42;;
10586;SDS011;5341;47.606;7.576;2023-05-07T03:35:11;3.25;;;2.40;;
10586;SDS011;5341;47.606;7.576;2023-05-07T03:37:40;4.60;;;2.13;;
10586;SDS011;5341;47.606;7.576;2023-05-07T03:40:08;3.78;;;2.55;;
10586;SDS011;5341;47.606;7.576;2023-05-07T03:42:44;3.92;;;2.30;;
10586;SDS011;5341;47.606;7.576;2023-05-07T03:45:12;2.95;;;2.30;;
10586;SDS011;5341;47.606;7.576;2023-05-07T03:47:44;2.95;;;2.20;;
10586;SDS011;5341;47.606;7.576;2023-05-07T03:50:17;4.25;;;2.50;;
10586;SDS011;5341;47.606;7.576;2023-05-07T03:52:44;3.63;;;2.40;;
10586;SDS011;5341;47.606;7.576;2023-05-07T03:55:14;3.40;;;2.30;;
10586;SDS011;5341;47.606;7.576;2023-05-07T03:57:47;2.80;;;2.28;;
10586;SDS011;5341;47.606;7.576;2023-05-07T04:00:18;3.95;;;2.30;;
10586;SDS011;5341;47.606;7.576;2023-05-07T04:02:46;2.72;;;2.45;;
10586;SDS011;5341;47.606;7.576;2023-05-07T04:05:18;6.03;;;2.50;;
10586;SDS011;5341;47.606;7.576;2023-05-07T04:07:49;5.18;;;2.28;;
10586;SDS011;5341;47.606;7.576;2023-05-07T04:10:21;3.75;;;2.40;;
10586;SDS011;5341;47.606;7.576;2023-05-07T04:12:51;3.17;;;2.40;;
10586;SDS011;5341;47.606;7.576;2023-05-07T04:15:24;3.20;;;2.30;;
10586;SDS011;5341;47.606;7.576;2023-05-07T04:17:51;3.08;;;2.10;;
10586;SDS011;5341;47.606;7.576;2023-05-07T04:20:22;3.28;;;2.03;;
10586;SDS011;5341;47.606;7.576;2023-05-07T04:22:57;2.47;;;2.22;;
10586;SDS011;5341;47.606;7.576;2023-05-07T04:25:25;3.10;;;2.15;;
10586;SDS011;5341;47.606;7.576;2023-05-07T04:27:57;3.30;;;2.20;;
10586;SDS011;5341;47.606;7.576;2023-05-07T04:30:26;3.38;;;2.00;;
10586;SDS011;5341;47.606;7.576;2023-05-07T04:32:54;3.00;;;2.50;;
10586;SDS011;5341;47.606;7.576;2023-05-07T04:35:26;3.03;;;2.25;;
10586;SDS011;5341;47.606;7.576;2023-05-07T04:37:53;3.30;;;2.45;;
10586;SDS011;5341;47.606;7.576;2023-05-07T04:40:21;3.83;;;2.53;;
10586;SDS011;5341;47.606;7.576;2023-05-07T04:42:48;3.13;;;2.47;;
10586;SDS011;5341;47.606;7.576;2023-05-07T04:45:17;3.92;;;2.30;;
10586;SDS011;5341;47.606;7.576;2023-05-07T04:47:46;4.28;;;2.63;;
10586;SDS011;5341;47.606;7.576;2023-05-07T04:50:13;4.85;;;2.58;;
10586;SDS011;5341;47.606;7.576;2023-05-07T04:52:44;3.20;;;2.33;;
10586;SDS011;5341;47.606;7.576;2023-05-07T04:55:12;2.35;;;2.10;;
10586;SDS011;5341;47.606;7.576;2023-05-07T04:57:41;2.72;;;2.25;;
10586;SDS011;5341;47.606;7.576;2023-05-07T05:00:11;3.38;;;2.08;;
10586;SDS011;5341;47.606;7.576;2023-05-07T05:02:42;3.17;;;2.30;;
10586;SDS011;5341;47.606;7.576;2023-05-07T05:05:11;5.00;;;2.40;;
10586;SDS011;5341;47.606;7.576;2023-05-07T05:07:39;3.50;;;2.65;;
10586;SDS011;5341;47.606;7.576;2023-05-07T05:10:09;4.05;;;2.30;;
10586;SDS011;5341;47.606;7.576;2023-05-07T05:12:38;3.25;;;2.55;;
10586;SDS011;5341;47.606;7.576;2023-05-07T05:15:07;6.75;;;2.53;;
10586;SDS011;5341;47.606;7.576;2023-05-07T05:17:35;2.60;;;2.40;;
10586;SDS011;5341;47.606;7.576;2023-05-07T05:20:04;4.60;;;2.72;;
10586;SDS011;5341;47.606;7.576;2023-05-07T05:22:33;5.22;;;2.55;;
10586;SDS011;5341;47.606;7.576;2023-05-07T05:25:01;4.13;;;2.80;;
10586;SDS011;5341;47.606;7.576;2023-05-07T05:27:30;3.15;;;2.60;;
10586;SDS011;5341;47.606;7.576;2023-05-07T05:29:57;3.80;;;2.63;;
10586;SDS011;5341;47.606;7.576;2023-05-07T05:32:26;3.88;;;2.75;;
10586;SDS011;5341;47.606;7.576;2023-05-07T05:34:55;5.25;;;2.85;;
10586;SDS011;5341;47.606;7.576;2023-05-07T05:37:24;3.42;;;3.13;;
10586;SDS011;5341;47.606;7.576;2023-05-07T05:39:53;5.07;;;2.75;;
10586;SDS011;5341;47.606;7.576;2023-05-07T05:42:21;4.93;;;3.10;;
10586;SDS011;5341;47.606;7.576;2023-05-07T05:44:50;4.60;;;2.80;;
10586;SDS011;5341;47.606;7.576;2023-05-07T05:47:17;4.32;;;2.95;;
10586;SDS011;5341;47.606;7.576;2023-05-07T05:49:45;4.93;;;3.20;;
10586;SDS011;5341;47.606;7.576;2023-05-07T05:52:15;3.20;;;2.90;;
10586;SDS011;5341;47.606;7.576;2023-05-07T05:54:43;3.58;;;2.90;;
10586;SDS011;5341;47.606;7.576;2023-05-07T05:57:15;3.30;;;3.00;;
10586;SDS011;5341;47.606;7.576;2023-05-07T05:59:43;4.68;;;3.20;;
10586;SDS011;5341;47.606;7.576;2023-05-07T06:02:14;3.85;;;2.92;;
10586;SDS011;5341;47.606;7.576;2023-05-07T06:04:42;5.88;;;2.63;;
10586;SDS011;5341;47.606;7.576;2023-05-07T06:07:14;3.17;;;2.70;;
10586;SDS011;5341;47.606;7.576;2023-05-07T06:09:42;4.57;;;2.75;;
10586;SDS011;5341;47.606;7.576;2023-05-07T06:12:10;3.30;;;2.90;;
10586;SDS011;5341;47.606;7.576;2023-05-07T06:14:38;4.63;;;3.30;;
10586;SDS011;5341;47.606;7.576;2023-05-07T06:17:06;4.22;;;3.10;;
10586;SDS011;5341;47.606;7.576;2023-05-07T06:19:35;4.40;;;3.10;;
10586;SDS011;5341;47.606;7.576;2023-05-07T06:22:03;5.10;;;3.10;;
10586;SDS011;5341;47.606;7.576;2023-05-07T06:24:32;3.70;;;2.97;;
10586;SDS011;5341;47.606;7.576;2023-05-07T06:27:00;3.60;;;2.63;;
10586;SDS011;5341;47.606;7.576;2023-05-07T06:29:30;5.72;;;2.90;;
10586;SDS011;5341;47.606;7.576;2023-05-07T06:32:05;3.90;;;2.67;;
10586;SDS011;5341;47.606;7.576;2023-05-07T06:34:35;4.88;;;2.90;;
10586;SDS011;5341;47.606;7.576;2023-05-07T06:37:03;4.10;;;2.90;;
10586;SDS011;5341;47.606;7.576;2023-05-07T06:39:45;4.05;;;3.08;;
10586;SDS011;5341;47.606;7.576;2023-05-07T06:42:13;4.47;;;3.33;;
10586;SDS011;5341;47.606;7.576;2023-05-07T06:44:42;5.40;;;2.80;;
10586;SDS011;5341;47.606;7.576;2023-05-07T06:47:13;4.70;;;3.08;;
10586;SDS011;5341;47.606;7.576;2023-05-07T06:49:42;8.48;;;3.00;;
10586;SDS011;5341;47.606;7.576;2023-05-07T06:52:13;2.72;;;2.50;;
10586;SDS011;5341;47.606;7.576;2023-05-07T06:54:41;3.63;;;2.80;;
10586;SDS011;5341;47.606;7.576;2023-05-07T06:57:08;3.20;;;2.72;;
10586;SDS011;5341;47.606;7.576;2023-05-07T06:59:36;4.75;;;2.90;;
10586;SDS011;5341;47.606;7.576;2023-05-07T07:02:06;3.45;;;2.60;;
10586;SDS011;5341;47.606;7.576;2023-05-07T07:04:34;6.63;;;2.80;;
10586;SDS011;5341;47.606;7.576;2023-05-07T07:07:07;3.60;;;2.40;;
10586;SDS011;5341;47.606;7.576;2023-05-07T07:09:35;4.72;;;2.58;;
10586;SDS011;5341;47.606;7.576;2023-05-07T07:12:04;3.08;;;2.60;;
10586;SDS011;5341;47.606;7.576;2023-05-07T07:14:33;3.40;;;2.70;;
10586;SDS011;5341;47.606;7.576;2023-05-07T07:17:00;3.90;;;2.50;;
10586;SDS011;5341;47.606;7.576;2023-05-07T07:19:28;2.55;;;2.17;;
10586;SDS011;5341;47.606;7.576;2023-05-07T07:21:56;2.88;;;2.35;;
10586;SDS011;5341;47.606;7.576;2023-05-07T07:24:25;3.67;;;2.60;;
10586;SDS011;5341;47.606;7.576;2023-05-07T07:26:58;3.05;;;2.30;;
10586;SDS011;5341;47.606;7.576;2023-05-07T07:29:26;2.40;;;2.20;;
10586;SDS011;5341;47.606;7.576;2023-05-07T07:31:54;2.85;;;2.45;;
10586;SDS011;5341;47.606;7.576;2023-05-07T07:34:22;2.55;;;2.35;;
10586;SDS011;5341;47.606;7.576;2023-05-07T07:36:50;2.78;;;2.00;;
10586;SDS011;5341;47.606;7.576;2023-05-07T07:39:19;2.40;;;2.20;;
10586;SDS011;5341;47.606;7.576;2023-05-07T07:41:51;3.38;;;2.38;;
10586;SDS011;5341;47.606;7.576;2023-05-07T07:44:20;3.95;;;2.08;;
10586;SDS011;5341;47.606;7.576;2023-05-07T07:46:56;4.05;;;2.42;;
10586;SDS011;5341;47.606;7.576;2023-05-07T07:49:25;3.28;;;2.53;;
10586;SDS011;5341;47.606;7.576;2023-05-07T07:51:54;4.50;;;3.15;;
10586;SDS011;5341;47.606;7.576;2023-05-07T07:54:22;2.72;;;2.50;;
10586;SDS011;5341;47.606;7.576;2023-05-07T07:56:53;3.38;;;2.50;;
10586;SDS011;5341;47.606;7.576;2023-05-07T07:59:21;2.42;;;2.10;;
10586;SDS011;5341;47.606;7.576;2023-05-07T08:01:50;3.25;;;2.42;;
10586;SDS011;5341;47.606;7.576;2023-05-07T08:04:19;4.13;;;2.53;;
10586;SDS011;5341;47.606;7.576;2023-05-07T08:06:46;2.85;;;2.50;;
10586;SDS011;5341;47.606;7.576;2023-05-07T08:09:14;2.42;;;2.00;;
10586;SDS011;5341;47.606;7.576;2023-05-07T08:11:42;2.78;;;2.38;;
10586;SDS011;5341;47.606;7.576;2023-05-07T08:14:11;4.70;;;2.50;;
10586;SDS011;5341;47.606;7.576;2023-05-07T08:16:42;4.82;;;2.80;;
10586;SDS011;5341;47.606;7.576;2023-05-07T08:19:09;3.30;;;2.33;;
10586;SDS011;5341;47.606;7.576;2023-05-07T08:21:38;3.38;;;2.25;;
10586;SDS011;5341;47.606;7.576;2023-05-07T08:24:07;3.05;;;2.33;;
10586;SDS011;5341;47.606;7.576;2023-05-07T08:26:35;2.72;;;2.20;;
10586;SDS011;5341;47.606;7.576;2023-05-07T08:29:05;2.78;;;2.53;;
10586;SDS011;5341;47.606;7.576;2023-05-07T08:31:34;3.30;;;2.40;;
10586;SDS011;5341;47.606;7.576;2023-05-07T08:34:03;4.90;;;2.15;;
10586;SDS011;5341;47.606;7.576;2023-05-07T08:36:33;3.92;;;2.40;;
10586;SDS011;5341;47.606;7.576;2023-05-07T08:39:01;2.33;;;2.05;;
10586;SDS011;5341;47.606;7.576;2023-05-07T08:41:29;2.55;;;2.20;;
10586;SDS011;5341;47.606;7.576;2023-05-07T08:43:57;3.42;;;2.40;;
10586;SDS011;5341;47.606;7.576;2023-05-07T08:46:26;3.10;;;2.25;;
10586;SDS011;5341;47.606;7.576;2023-05-07T08:49:00;2.60;;;2.40;;
10586;SDS011;5341;47.606;7.576;2023-05-07T08:51:28;5.05;;;2.25;;
10586;SDS011;5341;47.606;7.576;2023-05-07T08:53:59;4.53;;;2.53;;
10586;SDS011;5341;47.606;7.576;2023-05-07T08:56:31;3.92;;;2.50;;
10586;SDS011;5341;47.606;7.576;2023-05-07T08:58:58;4.22;;;2.83;;
10586;SDS011;5341;47.606;7.576;2023-05-07T09:01:28;5.28;;;2.30;;
10586;SDS011;5341;47.606;7.576;2023-05-07T09:03:57;3.15;;;2.28;;
10586;SDS011;5341;47.606;7.576;2023-05-07T09:06:28;3.20;;;2.80;;
10586;SDS011;5341;47.606;7.576;2023-05-07T09:08:59;3.35;;;2.50;;
10586;SDS011;5341;47.606;7.576;2023-05-07T09:11:31;2.60;;;2.40;;
10586;SDS011;5341;47.606;7.576;2023-05-07T09:14:00;4.30;;;2.50;;
10586;SDS011;5341;47.606;7.576;2023-05-07T09:16:32;2.83;;;2.20;;
10586;SDS011;5341;47.606;7.576;2023-05-07T09:19:00;6.20;;;2.60;;
10586;SDS011;5341;47.606;7.576;2023-05-07T09:21:30;5.40;;;2.85;;
10586;SDS011;5341;47.606;7.576;2023-05-07T09:24:01;3.13;;;2.50;;
10586;SDS011;5341;47.606;7.576;2023-05-07T09:26:35;3.45;;;2.50;;
10586;SDS011;5341;47.606;7.576;2023-05-07T09:29:04;3.95;;;2.70;;
10586;SDS011;5341;47.606;7.576;2023-05-07T09:31:31;4.15;;;3.22;;
10586;SDS011;5341;47.606;7.576;2023-05-07T09:33:59;2.50;;;2.30;;
10586;SDS011;5341;47.606;7.576;2023-05-07T09:36:29;3.78;;;2.78;;
10586;SDS011;5341;47.606;7.576;2023-05-07T09:38:59;3.70;;;2.75;;
10586;SDS011;5341;47.606;7.576;2023-05-07T09:41:26;5.03;;;2.92;;
10586;SDS011;5341;47.606;7.576;2023-05-07T09:44:07;4.15;;;2.88;;
10586;SDS011;5341;47.606;7.576;2023-05-07T09:46:38;6.25;;;2.50;;
10586;SDS011;5341;47.606;7.576;2023-05-07T09:49:19;3.30;;;2.58;;
10586;SDS011;5341;47.606;7.576;2023-05-07T09:51:52;2.65;;;2.22;;
10586;SDS011;5341;47.606;7.576;2023-05-07T09:54:23;5.07;;;2.70;;
10586;SDS011;5341;47.606;7.576;2023-05-07T09:56:53;3.63;;;2.22;;
10586;SDS011;5341;47.606;7.576;2023-05-07T09:59:24;6.95;;;2.40;;
10586;SDS011;5341;47.606;7.576;2023-05-07T10:01:54;3.42;;;2.20;;
10586;SDS011;5341;47.606;7.576;2023-05-07T10:04:25;6.03;;;2.20;;
10586;SDS011;5341;47.606;7.576;2023-05-07T10:06:54;2.55;;;2.08;;
10586;SDS011;5341;47.606;7.576;2023-05-07T10:09:22;3.22;;;2.17;;
10586;SDS011;5341;47.606;7.576;2023-05-07T10:11:52;3.78;;;2.50;;
10586;SDS011;5341;47.606;7.576;2023-05-07T10:14:21;4.45;;;2.10;;
10586;SDS011;5341;47.606;7.576;2023-05-07T10:16:51;2.00;;;1.80;;
10586;SDS011;5341;47.606;7.576;2023-05-07T10:19:20;4.10;;;2.33;;
10586;SDS011;5341;47.606;7.576;2023-05-07T10:21:56;3.13;;;2.10;;
10586;SDS011;5341;47.606;7.576;2023-05-07T10:24:32;4.22;;;2.80;;
10586;SDS011;5341;47.606;7.576;2023-05-07T10:27:04;3.60;;;2.42;;
10586;SDS011;5341;47.606;7.576;2023-05-07T10:29:38;2.95;;;2.00;;
10586;SDS011;5341;47.606;7.576;2023-05-07T10:32:19;2.78;;;1.80;;
10586;SDS011;5341;47.606;7.576;2023-05-07T10:35:01;2.28;;;1.63;;
10586;SDS011;5341;47.606;7.576;2023-05-07T10:37:36;2.70;;;1.80;;
10586;SDS011;5341;47.606;7.576;2023-05-07T10:40:04;3.25;;;2.63;;
10586;SDS011;5341;47.606;7.576;2023-05-07T10:42:33;3.08;;;2.20;;
10586;SDS011;5341;47.606;7.576;2023-05-07T10:45:11;3.53;;;2.10;;
10586;SDS011;5341;47.606;7.576;2023-05-07T10:50:35;3.00;;;2.53;;
10586;SDS011;5341;47.606;7.576;2023-05-07T10:53:24;2.35;;;2.15;;
10586;SDS011;5341;47.606;7.576;2023-05-07T10:56:26;2.65;;;2.10;;
10586;SDS011;5341;47.606;7.576;2023-05-07T10:59:33;2.63;;;2.20;;
10586;SDS011;5341;47.606;7.576;2023-05-07T11:02:20;2.47;;;2.28;;
10586;SDS011;5341;47.606;7.576;2023-05-07T11:07:54;5.00;;;4.18;;
10586;SDS011;5341;47.606;7.576;2023-05-07T11:16:37;6.32;;;3.35;;
10586;SDS011;5341;47.606;7.576;2023-05-07T11:19:17;4.88;;;4.03;;
10586;SDS011;5341;47.606;7.576;2023-05-07T11:22:05;6.55;;;4.40;;
10586;SDS011;5341;47.606;7.576;2023-05-07T11:25:03;6.20;;;4.30;;
10586;SDS011;5341;47.606;7.576;2023-05-07T11:27:34;6.25;;;3.20;;
10586;SDS011;5341;47.606;7.576;2023-05-07T11:30:01;5.07;;;3.47;;
10586;SDS011;5341;47.606;7.576;2023-05-07T11:32:30;3.40;;;2.47;;
10586;SDS011;5341;47.606;7.576;2023-05-07T11:34:59;3.97;;;3.17;;
10586;SDS011;5341;47.606;7.576;2023-05-07T11:37:27;3.08;;;2.22;;
10586;SDS011;5341;47.606;7.576;2023-05-07T11:40:02;3.63;;;2.40;;
10586;SDS011;5341;47.606;7.576;2023-05-07T11:42:32;2.42;;;1.70;;
10586;SDS011;5341;47.606;7.576;2023-05-07T11:45:02;2.30;;;1.90;;
10586;SDS011;5341;47.606;7.576;2023-05-07T11:47:31;3.13;;;2.20;;
10586;SDS011;5341;47.606;7.576;2023-05-07T11:50:02;2.88;;;2.30;;
10586;SDS011;5341;47.606;7.576;2023-05-07T11:52:30;3.35;;;2.30;;
10586;SDS011;5341;47.606;7.576;2023-05-07T11:54:58;3.20;;;2.40;;
10586;SDS011;5341;47.606;7.576;2023-05-07T11:57:26;2.60;;;2.10;;
10586;SDS011;5341;47.606;7.576;2023-05-07T11:59:56;2.15;;;1.90;;
10586;SDS011;5341;47.606;7.576;2023-05-07T12:02:24;3.65;;;2.10;;
10586;SDS011;5341;47.606;7.576;2023-05-07T12:04:51;3.60;;;1.70;;
10586;SDS011;5341;47.606;7.576;2023-05-07T12:07:19;2.47;;;1.75;;
10586;SDS011;5341;47.606;7.576;2023-05-07T12:09:47;2.92;;;1.80;;
10586;SDS011;5341;47.606;7.576;2023-05-07T12:12:14;2.08;;;1.83;;
10586;SDS011;5341;47.606;7.576;2023-05-07T12:14:42;2.42;;;1.90;;
10586;SDS011;5341;47.606;7.576;2023-05-07T12:17:12;2.35;;;1.65;;
10586;SDS011;5341;47.606;7.576;2023-05-07T12:19:41;2.53;;;1.73;;
10586;SDS011;5341;47.606;7.576;2023-05-07T12:22:10;3.05;;;1.70;;
10586;SDS011;5341;47.606;7.576;2023-05-07T12:24:44;3.53;;;2.00;;
10586;SDS011;5341;47.606;7.576;2023-05-07T12:27:12;6.40;;;3.97;;
10586;SDS011;5341;47.606;7.576;2023-05-07T12:29:40;4.63;;;2.80;;
10586;SDS011;5341;47.606;7.576;2023-05-07T12:32:14;7.00;;;4.60;;
10586;SDS011;5341;47.606;7.576;2023-05-07T12:34:42;9.88;;;5.07;;
10586;SDS011;5341;47.606;7.576;2023-05-07T12:37:10;10.10;;;4.55;;
10586;SDS011;5341;47.606;7.576;2023-05-07T12:39:43;7.72;;;4.70;;
10586;SDS011;5341;47.606;7.576;2023-05-07T12:42:14;7.05;;;4.05;;
10586;SDS011;5341;47.606;7.576;2023-05-07T12:44:43;9.45;;;4.25;;
10586;SDS011;5341;47.606;7.576;2023-05-07T12:47:14;11.90;;;4.05;;
10586;SDS011;5341;47.606;7.576;2023-05-07T12:49:42;9.02;;;3.80;;
10586;SDS011;5341;47.606;7.576;2023-05-07T12:52:11;4.35;;;2.70;;
10586;SDS011;5341;47.606;7.576;2023-05-07T12:54:38;6.18;;;2.53;;
10586;SDS011;5341;47.606;7.576;2023-05-07T12:57:06;5.07;;;2.45;;
10586;SDS011;5341;47.606;7.576;2023-05-07T12:59:34;7.95;;;2.38;;
10586;SDS011;5341;47.606;7.576;2023-05-07T13:02:03;8.48;;;2.80;;
10586;SDS011;5341;47.606;7.576;2023-05-07T13:04:32;5.53;;;2.47;;
10586;SDS011;5341;47.606;7.576;2023-05-07T13:07:00;6.85;;;2.40;;
10586;SDS011;5341;47.606;7.576;2023-05-07T13:09:28;4.70;;;2.28;;
10586;SDS011;5341;47.606;7.576;2023-05-07T13:11:55;6.55;;;2.40;;
10586;SDS011;5341;47.606;7.576;2023-05-07T13:14:25;4.30;;;2.08;;
10586;SDS011;5341;47.606;7.576;2023-05-07T13:16:52;5.63;;;2.10;;
10586;SDS011;5341;47.606;7.576;2023-05-07T13:19:20;5.10;;;2.20;;
10586;SDS011;5341;47.606;7.576;2023-05-07T13:21:49;5.65;;;2.05;;
10586;SDS011;5341;47.606;7.576;2023-05-07T13:24:16;4.20;;;2.00;;
10586;SDS011;5341;47.606;7.576;2023-05-07T13:26:43;4.35;;;1.70;;
10586;SDS011;5341;47.606;7.576;2023-05-07T13:29:11;3.20;;;1.83;;
10586;SDS011;5341;47.606;7.576;2023-05-07T13:31:38;5.72;;;2.08;;
10586;SDS011;5341;47.606;7.576;2023-05-07T13:34:14;2.88;;;2.20;;
10586;SDS011;5341;47.606;7.576;2023-05-07T13:36:43;4.13;;;2.33;;
10586;SDS011;5341;47.606;7.576;2023-05-07T13:39:11;6.30;;;2.40;;
10586;SDS011;5341;47.606;7.576;2023-05-07T13:41:39;5.47;;;2.03;;
10586;SDS011;5341;47.606;7.576;2023-05-07T13:44:06;4.80;;;1.83;;
10586;SDS011;5341;47.606;7.576;2023-05-07T13:46:34;3.88;;;2.17;;
10586;SDS011;5341;47.606;7.576;2023-05-07T13:49:01;3.30;;;1.88;;
10586;SDS011;5341;47.606;7.576;2023-05-07T13:51:28;7.35;;;2.35;;
10586;SDS011;5341;47.606;7.576;2023-05-07T13:53:56;3.15;;;2.05;;
10586;SDS011;5341;47.606;7.576;2023-05-07T13:56:25;4.05;;;2.13;;
10586;SDS011;5341;47.606;7.576;2023-05-07T13:58:53;3.40;;;1.80;;
10586;SDS011;5341;47.606;7.576;2023-05-07T14:01:21;5.68;;;1.80;;
10586;SDS011;5341;47.606;7.576;2023-05-07T14:03:48;4.13;;;1.85;;
10586;SDS011;5341;47.606;7.576;2023-05-07T14:06:15;3.67;;;1.90;;
10586;SDS011;5341;47.606;7.576;2023-05-07T14:08:43;5.07;;;2.00;;
10586;SDS011;5341;47.606;7.576;2023-05-07T14:11:10;3.78;;;2.05;;
10586;SDS011;5341;47.606;7.576;2023-05-07T14:13:39;6.65;;;2.03;;
10586;SDS011;5341;47.606;7.576;2023-05-07T14:16:06;4.68;;;2.13;;
10586;SDS011;5341;47.606;7.576;2023-05-07T14:18:33;4.25;;;2.20;;
10586;SDS011;5341;47.606;7.576;2023-05-07T14:21:02;3.65;;;2.20;;
10586;SDS011;5341;47.606;7.576;2023-05-07T14:23:31;5.78;;;2.47;;
10586;SDS011;5341;47.606;7.576;2023-05-07T14:25:58;6.93;;;2.67;;
10586;SDS011;5341;47.606;7.576;2023-05-07T14:28:25;8.80;;;2.67;;
10586;SDS011;5341;47.606;7.576;2023-05-07T14:30:54;3.40;;;2.13;;
10586;SDS011;5341;47.606;7.576;2023-05-07T14:33:21;10.60;;;2.55;;
10586;SDS011;5341;47.606;7.576;2023-05-07T14:35:49;6.93;;;2.40;;
10586;SDS011;5341;47.606;7.576;2023-05-07T14:38:16;3.08;;;2.10;;
10586;SDS011;5341;47.606;7.576;2023-05-07T14:40:44;3.38;;;2.20;;
10586;SDS011;5341;47.606;7.576;2023-05-07T14:43:11;3.15;;;2.15;;
10586;SDS011;5341;47.606;7.576;2023-05-07T14:45:38;4.97;;;2.20;;
10586;SDS011;5341;47.606;7.576;2023-05-07T14:48:07;3.20;;;2.25;;
10586;SDS011;5341;47.606;7.576;2023-05-07T14:50:40;5.43;;;2.28;;
10586;SDS011;5341;47.606;7.576;2023-05-07T14:53:07;3.08;;;2.08;;
10586;SDS011;5341;47.606;7.576;2023-05-07T14:55:35;11.27;;;2.50;;
10586;SDS011;5341;47.606;7.576;2023-05-07T14:58:02;10.70;;;2.63;;
10586;SDS011;5341;47.606;7.576;2023-05-07T15:00:30;9.63;;;2.88;;
10586;SDS011;5341;47.606;7.576;2023-05-07T15:03:01;7.60;;;2.50;;
10586;SDS011;5341;47.606;7.576;2023-05-07T15:05:33;7.90;;;2.40;;
10586;SDS011;5341;47.606;7.576;2023-05-07T15:08:01;6.13;;;2.30;;
10586;SDS011;5341;47.606;7.576;2023-05-07T15:10:28;4.25;;;2.30;;
10586;SDS011;5341;47.606;7.576;2023-05-07T15:12:55;4.65;;;3.65;;
10586;SDS011;5341;47.606;7.576;2023-05-07T15:15:22;6.15;;;4.30;;
10586;SDS011;5341;47.606;7.576;2023-05-07T15:17:51;4.15;;;2.97;;
10586;SDS011;5341;47.606;7.576;2023-05-07T15:20:19;3.85;;;2.70;;
10586;SDS011;5341;47.606;7.576;2023-05-07T15:22:48;2.65;;;1.90;;
10586;SDS011;5341;47.606;7.576;2023-05-07T15:25:15;3.63;;;2.08;;
10586;SDS011;5341;47.606;7.576;2023-05-07T15:27:43;2.55;;;1.90;;